Time;durP1;ratioP1;P1;durP2;ratioP2;P2;SDS_P1;SDS_P2;PMS_P1;PMS_P2;Temp;Humidity;BMP_temperature;BMP_pressure;BME280_temperature;BME280_humidity;BME280_pressure;Samples;Min_cycle;Max_cycle;Signal;HPM_P1;HPM_P2
2023/05/18 00:00:22;;;;;;;6.90;5.40;;;;;;;20.52;45.34;100268.71;109255;1263;83972;-88
2023/05/18 00:02:51;;;;;;;6.10;5.50;;;;;;;20.52;45.22;100266.56;109247;1262;67463;-88
2023/05/18 00:05:32;;;;;;;6.10;5.30;;;;;;;20.52;45.20;100267.85;109248;1261;67667;-88
2023/05/18 00:08:22;;;;;;;7.60;5.20;;;;;;;20.52;45.37;100268.20;108816;1267;67855;-88
2023/05/18 00:10:53;;;;;;;7.10;5.50;;;;;;;20.52;45.20;100271.58;108844;1267;75500;-88
2023/05/18 00:13:23;;;;;;;6.60;5.00;;;;;;;20.51;45.30;100267.58;108790;1267;83315;-89
2023/05/18 00:15:55;;;;;;;6.90;5.40;;;;;;;20.51;44.99;100266.56;108730;1267;72245;-88
2023/05/18 00:18:26;;;;;;;6.60;5.00;;;;;;;20.52;45.17;100265.79;108769;1266;67553;-88
2023/05/18 00:20:57;;;;;;;5.90;5.10;;;;;;;20.51;45.16;100265.59;108776;1267;67776;-88
2023/05/18 00:23:28;;;;;;;5.90;5.30;;;;;;;20.52;45.00;100270.40;108795;1267;74990;-88
2023/05/18 00:26:00;;;;;;;8.00;5.60;;;;;;;20.51;45.23;100272.44;108778;1267;83876;-88
2023/05/18 00:28:26;;;;;;;5.40;4.70;;;;;;;20.51;45.11;100270.75;108762;1267;72524;-88
2023/05/18 00:30:55;;;;;;;5.30;4.80;;;;;;;20.51;45.07;100274.98;108697;1267;67367;-88
2023/05/18 00:33:31;;;;;;;7.70;5.00;;;;;;;20.51;45.14;100272.74;109296;1260;67494;-88
2023/05/18 00:36:00;;;;;;;6.00;5.40;;;;;;;20.51;45.06;100274.95;109351;1262;67467;-88
2023/05/18 00:38:26;;;;;;;6.20;4.80;;;;;;;20.50;45.26;100271.98;109294;1261;82689;-88
2023/05/18 00:40:55;;;;;;;5.90;5.30;;;;;;;20.50;45.02;100268.86;109263;1260;68210;-88
2023/05/18 00:43:26;;;;;;;5.90;5.30;;;;;;;20.51;45.09;100271.00;109186;1266;67720;-88
2023/05/18 00:46:01;;;;;;;6.80;5.50;;;;;;;20.50;45.03;100267.98;109081;1268;67638;-88
2023/05/18 00:48:35;;;;;;;6.90;4.80;;;;;;;20.50;45.03;100268.86;109303;1260;74979;-88
2023/05/18 00:51:00;;;;;;;;;;;;;;;20.49;44.86;100263.60;109207;1260;83223;-88
2023/05/18 00:53:44;;;;;;;6.00;4.90;;;;;;;20.47;45.06;100268.10;109168;1264;71013;-88
2023/05/18 00:56:18;;;;;;;5.40;4.70;;;;;;;20.47;45.11;100267.23;109179;1260;68008;-88
2023/05/18 00:58:51;;;;;;;5.70;5.00;;;;;;;20.46;45.00;100267.68;109250;1260;67638;-88
2023/05/18 01:01:18;;;;;;;6.40;5.20;;;;;;;20.47;44.95;100271.07;109083;1260;75616;-89
2023/05/18 01:03:52;;;;;;;6.20;5.30;;;;;;;20.47;44.95;100269.59;109209;1261;82068;-88
2023/05/18 01:06:34;;;;;;;6.50;5.20;;;;;;;20.47;44.94;100269.84;109216;1260;70207;-88
2023/05/18 01:09:16;;;;;;;5.80;5.10;;;;;;;20.47;44.86;100271.52;109130;1261;67685;-88
2023/05/18 01:11:56;;;;;;;5.40;4.90;;;;;;;20.47;44.94;100273.38;109177;1260;67499;-88
2023/05/18 01:14:37;;;;;;;6.50;4.80;;;;;;;20.46;44.92;100275.67;109113;1263;75038;-88
2023/05/18 01:17:11;;;;;;;5.30;4.80;;;;;;;20.47;45.01;100271.07;109162;1264;82254;-88
2023/05/18 01:20:25;;;;;;;5.90;5.20;;;;;;;20.46;44.82;100276.08;109158;1263;72246;-88
2023/05/18 01:23:13;;;;;;;9.20;5.20;;;;;;;20.44;44.95;100275.02;109040;1263;67055;-88
2023/05/18 01:25:54;;;;;;;7.70;4.80;;;;;;;20.45;44.79;100280.08;109184;1264;67470;-88
2023/05/18 01:28:31;;;;;;;5.70;5.10;;;;;;;20.45;44.93;100284.56;109199;1264;75106;-88
2023/05/18 01:30:58;;;;;;;6.40;5.10;;;;;;;20.45;44.77;100281.56;109069;1263;82736;-90
2023/05/18 01:33:28;;;;;;;7.40;5.30;;;;;;;20.45;44.84;100275.77;109019;1264;72205;-88
2023/05/18 01:36:05;;;;;;;5.60;5.00;;;;;;;20.46;44.80;100282.88;109003;1264;67571;-88
2023/05/18 01:38:37;;;;;;;6.10;4.90;;;;;;;20.45;44.75;100284.98;109097;1263;67546;-88
2023/05/18 01:41:32;;;;;;;6.80;5.10;;;;;;;20.44;44.88;100288.25;109175;1262;75522;-88
2023/05/18 01:44:24;;;;;;;5.20;4.60;;;;;;;20.44;44.78;100288.91;109083;1262;83135;-88
2023/05/18 01:47:15;;;;;;;7.70;5.50;;;;;;;20.44;44.79;100286.56;109061;1263;72300;-88
2023/05/18 01:50:17;;;;;;;6.20;4.90;;;;;;;20.43;44.75;100284.83;109018;1263;67884;-88
2023/05/18 01:53:04;;;;;;;7.70;5.40;;;;;;;20.43;44.64;100283.44;109062;1264;68034;-88
2023/05/18 01:55:30;;;;;;;5.10;4.60;;;;;;;20.43;44.76;100285.55;109033;1263;75975;-88
2023/05/18 01:57:58;;;;;;;5.30;4.80;;;;;;;20.43;44.62;100284.98;109027;1263;67338;-89
2023/05/18 02:03:22;;;;;;;8.10;5.10;;;;;;;20.43;44.56;100279.30;109221;1261;67744;-88
2023/05/18 02:05:47;;;;;;;5.90;5.30;;;;;;;20.43;44.66;100279.77;109299;1261;67664;-88
2023/05/18 02:08:13;;;;;;;6.70;5.20;;;;;;;20.42;44.76;100279.20;109185;1263;66994;-88
2023/05/18 02:10:39;;;;;;;6.30;5.00;;;;;;;20.43;44.57;100280.79;109059;1263;67800;-88
2023/05/18 02:13:13;;;;;;;5.90;4.70;;;;;;;20.42;44.65;100278.59;109029;1263;73733;-88
2023/05/18 02:15:53;;;;;;;5.70;4.90;;;;;;;20.43;44.71;100278.17;108989;1263;67537;-93
2023/05/18 02:18:21;;;;;;;5.60;4.60;;;;;;;20.43;44.64;100279.04;109183;1263;67663;-88
2023/05/18 02:20:49;;;;;;;5.30;4.80;;;;;;;20.43;44.54;100280.17;109082;1263;76809;-88
2023/05/18 02:23:16;;;;;;;5.70;5.00;;;;;;;20.42;44.43;100281.96;109240;1263;82816;-88
2023/05/18 02:25:45;;;;;;;7.30;5.40;;;;;;;20.43;44.43;100285.79;109205;1262;73205;-88
2023/05/18 02:28:17;;;;;;;7.00;4.90;;;;;;;20.43;44.48;100291.98;109056;1261;67547;-88
2023/05/18 02:30:46;;;;;;;8.20;5.20;;;;;;;20.43;44.49;100291.82;109072;1263;67569;-94
2023/05/18 02:33:12;;;;;;;5.40;4.80;;;;;;;20.41;44.33;100289.27;109269;1263;68052;-88
2023/05/18 02:36:03;;;;;;;5.50;4.90;;;;;;;20.43;44.31;100292.54;109056;1265;82758;-88
2023/05/18 02:38:31;;;;;;;5.00;4.50;;;;;;;20.42;44.46;100288.66;109058;1263;71726;-88
2023/05/18 02:40:57;;;;;;;5.30;4.70;;;;;;;20.42;44.28;100288.05;109072;1263;67744;-88
2023/05/18 02:43:26;;;;;;;5.70;4.70;;;;;;;20.42;44.38;100286.11;109106;1261;67590;-88
2023/05/18 02:45:58;;;;;;;6.10;4.70;;;;;;;20.42;44.43;100287.84;109208;1261;73460;-89
2023/05/18 02:48:23;;;;;;;10.70;4.90;;;;;;;20.41;44.35;100286.45;109172;1260;82887;-88
2023/05/18 02:50:55;;;;;;;6.20;4.60;;;;;;;20.41;44.27;100291.67;109213;1260;72330;-88
2023/05/18 02:53:36;;;;;;;5.50;4.30;;;;;;;20.41;44.38;100289.42;109232;1261;67758;-88
2023/05/18 02:56:07;;;;;;;7.90;5.40;;;;;;;20.41;44.27;100292.95;109121;1260;67737;-88
2023/05/18 02:58:37;;;;;;;6.30;5.70;;;;;;;20.41;44.25;100291.57;109170;1260;73390;-88
2023/05/18 03:01:19;;;;;;;4.90;4.40;;;;;;;20.41;44.41;100293.45;109251;1261;82212;-89
2023/05/18 03:03:57;;;;;;;7.60;6.10;;;;;;;20.42;44.66;100293.36;109249;1263;73421;-88
2023/05/18 03:06:25;;;;;;;6.90;6.20;;;;;;;20.45;44.58;100298.52;109110;1261;67356;-88
2023/05/18 03:09:15;;;;;;;7.40;6.70;;;;;;;20.46;44.70;100297.79;109156;1263;67695;-88
2023/05/18 03:12:02;;;;;;;7.10;6.40;;;;;;;20.46;44.66;100301.48;109297;1260;74907;-88
2023/05/18 03:14:28;;;;;;;18.90;7.10;;;;;;;20.46;44.62;100302.05;109308;1260;81895;-88
2023/05/18 03:17:17;;;;;;;11.60;5.10;;;;;;;20.45;44.75;100308.43;109372;1260;67718;-89
2023/05/18 03:19:51;;;;;;;14.00;5.20;;;;;;;20.44;44.49;100313.45;109297;1260;67592;-88
2023/05/18 03:22:29;;;;;;;18.90;5.10;;;;;;;20.42;44.34;100316.52;109303;1262;67649;-88
2023/05/18 03:25:01;;;;;;;10.60;4.60;;;;;;;20.41;44.13;100323.04;109331;1260;75156;-88
2023/05/18 03:27:39;;;;;;;8.70;4.80;;;;;;;20.40;44.06;100326.11;109173;1260;67840;-93
2023/05/18 03:30:05;;;;;;;11.00;4.70;;;;;;;20.38;44.00;100331.89;109280;1260;72621;-88
2023/05/18 03:32:35;;;;;;;9.50;4.40;;;;;;;20.37;43.97;100335.00;109324;1260;66885;-87
2023/05/18 03:35:10;;;;;;;10.80;5.20;;;;;;;20.36;43.97;100334.44;109187;1260;67760;-87
2023/05/18 03:37:36;;;;;;;8.30;4.50;;;;;;;20.35;43.91;100336.44;109360;1260;74811;-88
2023/05/18 03:40:19;;;;;;;11.00;4.70;;;;;;;20.36;43.90;100335.77;109363;1260;67099;-88
2023/05/18 03:42:45;;;;;;;33.10;24.60;;;;;;;20.35;44.05;100339.80;109168;1260;73332;-88
2023/05/18 03:45:10;;;;;;;33.90;25.50;;;;;;;20.36;43.78;100346.59;109109;1259;68000;-88
2023/05/18 03:47:52;;;;;;;41.70;35.90;;;;;;;20.35;43.72;100347.78;109308;1260;67765;-88
2023/05/18 03:50:20;;;;;;;33.70;27.90;;;;;;;20.35;43.54;100349.16;109284;1260;67514;-88
2023/05/18 03:52:45;;;;;;;32.70;26.90;;;;;;;20.34;43.34;100349.77;109403;1260;67738;-87
2023/05/18 03:55:13;;;;;;;33.20;22.30;;;;;;;20.33;43.32;100351.81;109288;1260;67642;-88
2023/05/18 03:57:42;;;;;;;26.00;18.50;;;;;;;20.33;43.05;100355.55;109325;1260;67593;-88
2023/05/18 04:00:12;;;;;;;18.40;14.50;;;;;;;20.32;43.12;100351.09;109175;1260;67621;-88
2023/05/18 04:02:41;;;;;;;14.60;12.20;;;;;;;20.33;42.99;100354.52;109380;1260;75928;-88
2023/05/18 04:05:13;;;;;;;17.00;12.50;;;;;;;20.31;42.73;100355.74;109430;1259;84215;-88
2023/05/18 04:07:45;;;;;;;16.00;11.70;;;;;;;20.31;42.77;100356.11;109201;1260;72255;-87
2023/05/18 04:10:18;;;;;;;14.40;10.70;;;;;;;20.30;42.79;100354.00;109213;1260;67669;-88
2023/05/18 04:12:47;;;;;;;12.30;9.70;;;;;;;20.29;42.63;100357.13;109254;1260;67553;-88
2023/05/18 04:17:52;;;;;;;16.10;8.50;;;;;;;20.27;42.64;100356.15;109373;1260;83124;-88
2023/05/18 04:20:18;;;;;;;10.00;7.00;;;;;;;20.28;42.50;100353.09;109193;1260;72294;-88
2023/05/18 04:24:08;;;;;;;;;;;;;;;;;;;;;
2023/05/18 04:27:49;;;;;;;12.90;7.40;;;;;;;20.24;42.62;100355.33;109449;1259;67696;-88
2023/05/18 04:30:36;;;;;;;11.90;6.90;;;;;;;20.23;42.73;100361.95;109424;1260;75067;-92
2023/05/18 04:37:21;;;;;;;12.50;7.40;;;;;;;20.22;42.93;100368.55;109057;1266;71003;-88
2023/05/18 04:39:46;;;;;;;8.80;6.40;;;;;;;20.23;42.81;100366.62;108975;1265;67742;-88
2023/05/18 04:42:19;;;;;;;9.30;6.20;;;;;;;20.23;42.96;100371.41;109020;1267;67054;-92
2023/05/18 04:53:49;;;;;;;12.00;5.80;;;;;;;20.23;43.18;100384.29;109389;1260;67331;-85
2023/05/18 04:56:19;;;;;;;8.70;6.00;;;;;;;20.24;43.32;100389.61;109472;1260;67297;-87
2023/05/18 04:58:48;;;;;;;14.10;5.90;;;;;;;20.26;43.36;100390.34;109485;1260;75080;-88
2023/05/18 05:01:14;;;;;;;14.80;6.20;;;;;;;20.26;43.60;100394.41;109438;1260;83168;-88
2023/05/18 05:03:47;;;;;;;15.00;5.40;;;;;;;20.28;43.58;100397.89;109512;1260;72617;-86
2023/05/18 05:06:14;;;;;;;9.60;5.70;;;;;;;20.29;43.85;100398.27;109769;1260;67287;-89
2023/05/18 05:17:36;;;;;;;13.10;6.10;;;;;;;20.31;44.25;100410.52;109475;1260;71325;-85
2023/05/18 05:20:02;;;;;;;10.00;5.30;;;;;;;20.32;44.40;100410.46;109144;1260;68196;-86
2023/05/18 05:22:27;;;;;;;19.80;6.50;;;;;;;20.33;44.49;100415.08;109134;1265;67254;-85
2023/05/18 05:24:53;;;;;;;17.30;6.10;;;;;;;20.34;44.60;100421.20;109246;1260;68116;-86
2023/05/18 05:27:26;;;;;;;10.10;6.00;;;;;;;20.34;44.60;100422.38;109365;1257;67837;31
2023/05/18 05:29:51;;;;;;;10.60;5.50;;;;;;;20.34;44.66;100422.99;109286;1260;72389;-89
2023/05/18 05:32:17;;;;;;;12.00;4.90;;;;;;;20.37;45.04;100420.08;109360;1265;67393;-90
2023/05/18 05:34:46;;;;;;;10.80;5.30;;;;;;;20.40;45.29;100425.26;109388;1260;67709;-87
2023/05/18 05:37:12;;;;;;;14.90;6.40;;;;;;;20.41;45.21;100424.70;109359;1260;75310;-86
2023/05/18 05:39:44;;;;;;;13.90;6.80;;;;;;;20.43;45.09;100426.75;109407;1260;67546;-89
2023/05/18 05:42:18;;;;;;;16.80;8.70;;;;;;;20.44;45.08;100429.41;109341;1260;72155;-90
2023/05/18 05:44:44;;;;;;;16.00;8.80;;;;;;;20.43;45.11;100435.02;109345;1260;67703;-88
2023/05/18 05:47:10;;;;;;;13.50;7.90;;;;;;;20.42;45.18;100436.75;109327;1260;67503;-88
2023/05/18 05:49:35;;;;;;;15.00;8.70;;;;;;;20.41;45.46;100437.72;109362;1263;68017;-89
2023/05/18 05:52:01;;;;;;;20.70;9.00;;;;;;;20.41;45.18;100437.27;109430;1260;67268;-89
2023/05/18 06:09:41;;;;;;;14.80;7.40;;;;;;;20.41;45.64;100440.14;109577;1262;71232;-87
2023/05/18 06:12:07;;;;;;;19.60;7.50;;;;;;;20.42;45.81;100445.65;109649;1262;68070;-89
2023/05/18 06:14:34;;;;;;;15.50;7.70;;;;;;;20.43;45.82;100447.64;109548;1257;67227;-90
2023/05/18 06:17:13;;;;;;;;;;;;;;;;;;;;;
2023/05/18 06:19:41;;;;;;;20.20;7.50;;;;;;;20.46;45.78;100453.42;109628;1257;82015;-89
2023/05/18 06:22:07;;;;;;;17.50;6.10;;;;;;;20.46;45.64;100458.17;109723;1263;67631;-87
2023/05/18 06:24:33;;;;;;;13.40;7.10;;;;;;;20.45;45.68;100456.44;109823;1257;66948;-87
2023/05/18 06:27:16;;;;;;;15.10;9.10;;;;;;;20.45;45.70;100459.41;109847;1257;67910;31
2023/05/18 06:32:29;;;;;;;14.40;9.50;;;;;;;20.47;45.82;100460.42;109501;1260;80317;-89
2023/05/18 06:34:58;;;;;;;11.80;8.60;;;;;;;20.48;45.74;100461.39;109609;1260;72098;-90
2023/05/18 06:37:38;;;;;;;13.20;7.60;;;;;;;20.49;45.81;100463.80;109602;1257;67617;-90
2023/05/18 06:40:19;;;;;;;15.10;7.70;;;;;;;20.49;45.74;100465.64;109466;1261;68287;-89
2023/05/18 06:45:43;;;;;;;15.00;7.20;;;;;;;20.49;45.71;100469.07;109577;1260;80752;-86
2023/05/18 06:48:52;;;;;;;;;;;;;;;;;;;;;
2023/05/18 06:51:26;;;;;;;17.10;7.20;;;;;;;20.46;45.77;100479.19;109447;1261;67851;-88
2023/05/18 07:08:26;;;;;;;14.80;5.90;;;;;;;20.47;45.53;100490.73;109478;1259;67444;-89
2023/05/18 07:11:12;;;;;;;12.60;5.30;;;;;;;20.47;45.53;100492.67;109396;1260;75962;-90
2023/05/18 07:13:47;;;;;;;14.90;5.30;;;;;;;20.47;45.48;100494.52;109675;1260;82653;-91
2023/05/18 07:16:50;;;;;;;;;;;;;;;;;;;;;
2023/05/18 07:19:16;;;;;;;18.40;4.70;;;;;;;20.47;45.67;100496.41;109274;1260;67555;-84
2023/05/18 07:21:58;;;;;;;11.10;4.60;;;;;;;20.47;45.56;100499.53;109401;1259;68108;-86
2023/05/18 07:24:30;;;;;;;10.40;4.00;;;;;;;20.48;45.74;100500.04;109232;1262;75229;-85
2023/05/18 07:27:05;;;;;;;11.20;4.10;;;;;;;20.53;46.21;100501.38;109310;1260;83265;-89
2023/05/18 07:30:04;;;;;;;11.80;4.30;;;;;;;20.57;46.26;100498.80;109349;1260;72255;-91
2023/05/18 07:35:56;;;;;;;8.20;4.40;;;;;;;20.58;46.08;100502.00;109419;1261;67088;-88
2023/05/18 07:40:58;;;;;;;13.30;5.00;;;;;;;20.58;45.83;100499.51;109433;1260;81941;-90
2023/05/18 07:43:25;;;;;;;11.90;5.00;;;;;;;20.58;45.95;100501.75;109277;1260;72234;-89
2023/05/18 07:45:50;;;;;;;8.10;5.20;;;;;;;20.57;45.84;100500.67;109416;1259;67316;-89
2023/05/18 07:51:13;;;;;;;14.20;5.70;;;;;;;20.57;45.55;100509.52;109199;1262;74638;-84
2023/05/18 07:54:06;;;;;;;13.90;5.80;;;;;;;20.57;45.60;100509.67;109384;1260;82856;-87
2023/05/18 07:56:56;;;;;;;15.60;6.20;;;;;;;20.57;45.53;100506.83;109223;1261;73560;-88
2023/05/18 07:59:45;;;;;;;12.80;5.80;;;;;;;20.58;45.51;100510.19;109432;1260;67790;-91
2023/05/18 08:08:20;;;;;;;13.00;5.20;;;;;;;20.58;45.37;100512.18;109115;1259;553403;-88
2023/05/18 08:13:30;;;;;;;9.60;5.40;;;;;;;20.60;45.46;100514.79;109394;1259;67775;-88
2023/05/18 08:15:58;;;;;;;14.00;5.30;;;;;;;20.61;45.30;100516.58;109374;1260;67294;-91
2023/05/18 08:18:27;;;;;;;13.60;4.70;;;;;;;20.61;45.31;100518.02;109475;1260;74996;-94
2023/05/18 08:20:54;;;;;;;21.00;4.30;;;;;;;20.62;45.41;100524.77;109533;1260;82906;-90
2023/05/18 08:23:23;;;;;;;17.80;4.70;;;;;;;20.63;45.40;100525.27;109172;1262;73478;-88
2023/05/18 08:25:59;;;;;;;15.90;4.40;;;;;;;20.63;45.39;100522.77;109340;1261;68060;-91
2023/05/18 08:49:12;;;;;;;12.30;4.20;;;;;;;20.60;45.16;100530.64;108749;1260;553949;-87
2023/05/18 08:52:03;;;;;;;14.00;4.20;;;;;;;20.61;45.25;100531.05;109617;1260;67026;-90
2023/05/18 08:54:29;;;;;;;7.30;4.00;;;;;;;20.62;45.23;100527.67;109619;1259;67633;-88
2023/05/18 08:56:55;;;;;;;10.50;3.90;;;;;;;20.63;45.10;100527.78;109514;1258;66966;-88
2023/05/18 08:59:26;;;;;;;11.50;3.60;;;;;;;20.64;45.16;100522.00;109585;1260;67667;-91
2023/05/18 09:05:20;;;;;;;8.40;3.50;;;;;;;20.65;45.10;100515.93;109429;1260;71237;-91
2023/05/18 09:08:05;;;;;;;17.40;3.80;;;;;;;20.65;45.04;100510.61;109612;1260;67703;-89
2023/05/18 09:10:31;;;;;;;12.60;3.60;;;;;;;20.68;45.16;100517.37;109393;1266;68071;-88
2023/05/18 09:12:57;;;;;;;10.80;3.20;;;;;;;20.70;45.13;100511.23;109334;1260;67840;-85
2023/05/18 09:15:24;;;;;;;12.70;3.50;;;;;;;20.71;45.22;100509.02;109414;1260;67382;-88
2023/05/18 09:17:56;;;;;;;23.10;3.80;;;;;;;20.72;45.06;100512.45;109413;1260;68389;-90
2023/05/18 09:20:38;;;;;;;11.90;3.20;;;;;;;20.72;44.99;100510.88;109428;1260;67994;-89
2023/05/18 09:23:07;;;;;;;18.80;3.50;;;;;;;20.73;45.02;100508.67;109358;1260;67632;-90
2023/05/18 09:25:35;;;;;;;16.60;3.40;;;;;;;20.74;44.96;100504.44;109456;1260;74968;-90
2023/05/18 09:28:13;;;;;;;17.50;4.00;;;;;;;20.74;45.11;100506.84;109456;1260;82852;-87
2023/05/18 09:31:16;;;;;;;19.00;6.00;;;;;;;20.73;44.98;100504.98;109400;1260;72222;-89
2023/05/18 09:33:45;;;;;;;19.00;9.60;;;;;;;20.73;45.23;100506.89;109424;1260;67573;-90
2023/05/18 09:36:16;;;;;;;20.50;9.80;;;;;;;20.74;45.24;100507.55;109461;1260;67729;-90
2023/05/18 09:38:44;;;;;;;16.60;8.60;;;;;;;20.75;45.00;100505.27;109417;1260;74968;-85
2023/05/18 09:41:15;;;;;;;17.20;9.30;;;;;;;20.75;44.97;100503.16;109294;1260;83172;-85
2023/05/18 09:43:42;;;;;;;26.70;7.60;;;;;;;20.75;44.91;100503.63;109086;1267;71387;-86
2023/05/18 09:46:08;;;;;;;19.90;7.90;;;;;;;20.75;44.89;100497.85;109187;1261;67554;-86
2023/05/18 09:51:17;;;;;;;14.80;7.50;;;;;;;20.75;44.75;100501.98;109618;1259;76249;-85
2023/05/18 09:56:28;;;;;;;18.90;6.20;;;;;;;20.73;44.71;100498.76;109291;1265;73330;-89
2023/05/18 09:59:06;;;;;;;15.10;6.20;;;;;;;20.74;44.79;100501.98;109360;1260;68427;-89
2023/05/18 10:01:36;;;;;;;8.20;4.90;;;;;;;20.76;44.64;100498.95;109512;1259;67892;-90
2023/05/18 10:04:03;;;;;;;8.90;5.00;;;;;;;20.77;44.56;100497.11;109632;1260;74799;-89
2023/05/18 10:06:30;;;;;;;9.60;4.70;;;;;;;20.77;44.49;100494.55;109435;1260;83831;-87
2023/05/18 10:09:05;;;;;;;8.50;4.40;;;;;;;20.77;44.45;100494.20;109316;1259;67533;-90
2023/05/18 10:11:31;;;;;;;12.50;4.60;;;;;;;20.78;44.19;100490.61;109335;1261;67651;-84
2023/05/18 10:13:59;;;;;;;10.70;4.20;;;;;;;20.78;44.26;100491.08;109448;1260;67847;-89
2023/05/18 10:16:25;;;;;;;12.70;5.30;;;;;;;20.79;44.23;100500.59;109415;1260;74864;-89
2023/05/18 10:18:52;;;;;;;11.60;5.30;;;;;;;20.79;44.24;100496.34;109379;1260;68285;-88
2023/05/18 10:30:23;;;;;;;12.90;6.60;;;;;;;20.82;43.96;100483.71;109588;1263;74133;-93
2023/05/18 10:32:57;;;;;;;14.40;6.50;;;;;;;20.83;43.86;100486.89;109186;1260;83022;-92
2023/05/18 10:35:27;;;;;;;12.00;6.20;;;;;;;20.81;43.34;100477.98;109200;1260;72456;-87
2023/05/18 10:37:52;;;;;;;8.70;6.00;;;;;;;20.82;43.45;100484.44;109461;1260;67652;-90
2023/05/18 10:40:27;;;;;;;9.40;5.90;;;;;;;20.84;43.18;100477.06;109346;1260;67628;-90
2023/05/18 10:42:57;;;;;;;16.20;6.90;;;;;;;20.84;42.98;100476.41;109385;1260;75660;-89
2023/05/18 10:48:15;;;;;;;14.40;6.30;;;;;;;20.89;42.87;100472.83;109226;1262;71160;-90
2023/05/18 10:56:52;;;;;;;15.70;6.40;;;;;;;20.90;42.81;100467.05;109541;1259;75102;-90
2023/05/18 10:59:19;;;;;;;10.70;6.40;;;;;;;20.90;42.72;100462.50;109376;1262;82860;-88
2023/05/18 11:01:45;;;;;;;16.30;6.20;;;;;;;20.91;42.32;100464.30;109260;1259;67573;-89
2023/05/18 11:04:11;;;;;;;9.40;6.50;;;;;;;20.91;42.39;100465.01;109517;1260;67009;-88
2023/05/18 11:06:43;;;;;;;16.40;6.50;;;;;;;20.91;42.19;100464.18;109366;1260;67571;-87
2023/05/18 11:09:09;;;;;;;16.00;6.30;;;;;;;20.92;42.26;100465.16;109319;1260;74109;-88
2023/05/18 11:11:52;;;;;;;14.10;6.40;;;;;;;20.91;41.94;100461.02;109260;1261;67839;-89
2023/05/18 11:14:32;;;;;;;14.90;6.50;;;;;;;20.92;42.02;100462.96;109609;1259;72251;-88
2023/05/18 11:17:20;;;;;;;13.50;7.00;;;;;;;20.93;42.01;100457.48;109619;1259;67972;-89
2023/05/18 11:20:07;;;;;;;12.90;6.30;;;;;;;20.93;42.03;100457.64;109685;1259;67516;-88
2023/05/18 11:22:46;;;;;;;12.00;6.90;;;;;;;20.94;41.92;100460.39;109665;1259;75029;-89
2023/05/18 11:25:24;;;;;;;14.50;9.00;;;;;;;20.94;41.95;100460.51;109540;1260;83858;-89
2023/05/18 11:28:02;;;;;;;15.10;10.10;;;;;;;20.93;41.71;100462.35;109604;1260;72170;-90
2023/05/18 11:53:19;;;;;;;13.30;9.50;;;;;;;20.93;40.92;100443.42;109527;1259;71243;-90
2023/05/18 14:05:07;;;;;;;23.10;7.10;;;;;;;21.00;39.84;100429.30;109605;1260;67358;-91
2023/05/18 14:07:37;;;;;;;14.00;6.30;;;;;;;21.01;39.97;100423.88;109275;1260;75330;-88
2023/05/18 14:10:03;;;;;;;15.90;6.50;;;;;;;21.01;39.94;100424.29;109705;1259;82859;-88
2023/05/18 14:12:29;;;;;;;13.20;6.20;;;;;;;21.01;39.89;100422.29;109301;1260;67352;-89
2023/05/18 14:14:55;;;;;;;11.20;6.30;;;;;;;21.00;39.78;100428.17;109308;1260;68025;-89
2023/05/18 14:17:22;;;;;;;10.20;6.10;;;;;;;21.00;39.80;100427.55;109418;1257;67629;-88
2023/05/18 14:19:48;;;;;;;13.60;6.10;;;;;;;21.00;39.56;100430.77;109323;1259;66890;-88
2023/05/18 14:22:15;;;;;;;12.20;6.10;;;;;;;21.00;39.37;100431.17;109541;1260;67591;-90
2023/05/18 14:24:41;;;;;;;10.10;6.50;;;;;;;20.99;39.38;100425.66;109562;1259;67688;-90
2023/05/18 14:27:07;;;;;;;13.10;6.40;;;;;;;20.99;39.45;100421.73;109263;1260;67165;-90
2023/05/18 14:32:08;;;;;;;8.50;5.50;;;;;;;20.99;39.33;100426.98;109628;1259;75083;-89
2023/05/18 20:04:36;;;;;;;12.10;8.80;;;;;;;20.90;42.15;100560.70;109706;1257;76085;-92
2023/05/18 23:49:38;;;;;;;9.60;8.40;;;;;;;20.79;41.20;100611.86;105425;1260;5480225;-91
